sensor_id;sensor_type;location;lat;lon;timestamp;pressure;altitude;pressure_sealevel;temperature;humidity
62462;BME280;48511;38.664;-9.202;2023-02-22T00:01:51;50016.22;;;-146.63;82.28
62462;BME280;48511;38.664;-9.202;2023-02-22T00:04:10;49962.91;;;-146.63;82.71
62462;BME280;48511;38.664;-9.202;2023-02-22T00:06:15;50014.25;;;-146.63;82.54
62462;BME280;48511;38.664;-9.202;2023-02-22T00:08:16;49976.75;;;-146.63;82.49
62462;BME280;48511;38.664;-9.202;2023-02-22T00:10:17;50006.34;;;-146.63;82.62
62462;BME280;48511;38.664;-9.202;2023-02-22T00:12:21;49960.94;;;-146.63;82.74
62462;BME280;48511;38.664;-9.202;2023-02-22T00:14:22;50004.38;;;-146.63;82.71
62462;BME280;48511;38.664;-9.202;2023-02-22T00:16:25;49996.47;;;-146.63;82.71
62462;BME280;48511;38.664;-9.202;2023-02-22T00:18:27;49939.25;;;-146.63;82.68
62462;BME280;48511;38.664;-9.202;2023-02-22T00:20:28;49958.97;;;-146.63;82.89
62462;BME280;48511;38.664;-9.202;2023-02-22T00:22:29;49964.91;;;-146.63;82.98
62462;BME280;48511;38.664;-9.202;2023-02-22T00:24:31;49990.56;;;-146.63;82.85
62462;BME280;48511;38.664;-9.202;2023-02-22T00:26:32;49968.84;;;-146.63;82.70
62462;BME280;48511;38.664;-9.202;2023-02-22T00:28:33;49953.06;;;-146.63;82.53
62462;BME280;48511;38.664;-9.202;2023-02-22T00:30:36;49980.69;;;-146.63;82.42
62462;BME280;48511;38.664;-9.202;2023-02-22T00:32:37;49982.66;;;-146.63;82.70
62462;BME280;48511;38.664;-9.202;2023-02-22T00:34:37;49980.69;;;-146.63;82.48
62462;BME280;48511;38.664;-9.202;2023-02-22T00:36:44;49964.91;;;-146.63;82.87
62462;BME280;48511;38.664;-9.202;2023-02-22T00:38:46;49976.75;;;-146.63;83.17
62462;BME280;48511;38.664;-9.202;2023-02-22T00:40:46;49996.47;;;-146.63;83.15
62462;BME280;48511;38.664;-9.202;2023-02-22T00:42:47;49943.19;;;-146.63;83.33
62462;BME280;48511;38.664;-9.202;2023-02-22T00:44:48;49996.47;;;-146.63;83.31
62462;BME280;48511;38.664;-9.202;2023-02-22T00:46:49;49960.94;;;-146.63;83.66
62462;BME280;48511;38.664;-9.202;2023-02-22T00:48:50;50004.38;;;-146.63;83.36
62462;BME280;48511;38.664;-9.202;2023-02-22T00:50:51;49968.84;;;-146.63;83.61
62462;BME280;48511;38.664;-9.202;2023-02-22T00:52:55;49996.47;;;-146.63;83.56
62462;BME280;48511;38.664;-9.202;2023-02-22T00:54:57;49982.66;;;-146.63;83.90
62462;BME280;48511;38.664;-9.202;2023-02-22T00:56:59;49988.59;;;-146.63;83.87
62462;BME280;48511;38.664;-9.202;2023-02-22T00:59:01;49957.00;;;-146.63;84.02
62462;BME280;48511;38.664;-9.202;2023-02-22T01:01:03;49945.16;;;-146.63;84.25
62462;BME280;48511;38.664;-9.202;2023-02-22T01:03:05;49996.47;;;-146.63;83.97
62462;BME280;48511;38.664;-9.202;2023-02-22T01:05:11;49974.75;;;-146.63;84.47
62462;BME280;48511;38.664;-9.202;2023-02-22T01:07:12;49955.03;;;-146.63;84.45
62462;BME280;48511;38.664;-9.202;2023-02-22T01:09:13;49958.97;;;-146.63;84.51
62462;BME280;48511;38.664;-9.202;2023-02-22T01:11:15;49941.22;;;-146.63;84.79
62462;BME280;48511;38.664;-9.202;2023-02-22T01:13:16;49966.88;;;-146.63;84.59
62462;BME280;48511;38.664;-9.202;2023-02-22T01:15:21;49996.47;;;-146.63;84.67
62462;BME280;48511;38.664;-9.202;2023-02-22T01:17:23;49962.91;;;-146.63;84.98
62462;BME280;48511;38.664;-9.202;2023-02-22T01:19:24;49960.94;;;-146.63;84.88
62462;BME280;48511;38.664;-9.202;2023-02-22T01:21:25;49978.72;;;-146.63;85.09
62462;BME280;48511;38.664;-9.202;2023-02-22T01:23:27;50004.38;;;-146.63;85.12
62462;BME280;48511;38.664;-9.202;2023-02-22T01:25:32;49988.59;;;-146.63;85.64
62462;BME280;48511;38.664;-9.202;2023-02-22T01:27:34;49960.94;;;-146.63;85.39
62462;BME280;48511;38.664;-9.202;2023-02-22T01:29:35;49984.63;;;-146.63;85.72
62462;BME280;48511;38.664;-9.202;2023-02-22T01:31:36;49976.75;;;-146.63;85.85
62462;BME280;48511;38.664;-9.202;2023-02-22T01:33:39;49984.63;;;-146.63;85.77
62462;BME280;48511;38.664;-9.202;2023-02-22T01:35:42;49976.75;;;-146.63;85.98
62462;BME280;48511;38.664;-9.202;2023-02-22T01:37:43;49980.69;;;-146.63;85.90
62462;BME280;48511;38.664;-9.202;2023-02-22T01:39:44;49964.91;;;-146.63;85.98
62462;BME280;48511;38.664;-9.202;2023-02-22T01:41:46;49986.59;;;-146.63;86.26
62462;BME280;48511;38.664;-9.202;2023-02-22T01:43:46;49978.72;;;-146.63;86.14
62462;BME280;48511;38.664;-9.202;2023-02-22T01:45:53;49980.69;;;-146.63;86.26
62462;BME280;48511;38.664;-9.202;2023-02-22T01:50:12;49953.06;;;-146.63;86.71
62462;BME280;48511;38.664;-9.202;2023-02-22T01:52:16;49976.75;;;-146.63;86.79
62462;BME280;48511;38.664;-9.202;2023-02-22T01:56:20;49984.63;;;-146.63;86.99
62462;BME280;48511;38.664;-9.202;2023-02-22T01:58:23;49960.94;;;-146.63;86.90
62462;BME280;48511;38.664;-9.202;2023-02-22T02:00:25;49998.44;;;-146.63;86.98
62462;BME280;48511;38.664;-9.202;2023-02-22T02:02:27;49960.94;;;-146.63;86.92
62462;BME280;48511;38.664;-9.202;2023-02-22T02:04:28;50016.22;;;-146.63;87.25
62462;BME280;48511;38.664;-9.202;2023-02-22T02:06:32;49966.88;;;-146.63;87.06
62462;BME280;48511;38.664;-9.202;2023-02-22T02:08:45;50008.31;;;-146.63;87.20
62462;BME280;48511;38.664;-9.202;2023-02-22T02:10:49;49960.94;;;-146.63;87.34
62462;BME280;48511;38.664;-9.202;2023-02-22T02:12:52;50010.28;;;-146.63;87.51
62462;BME280;48511;38.664;-9.202;2023-02-22T02:15:35;49964.91;;;-146.63;87.43
62462;BME280;48511;38.664;-9.202;2023-02-22T02:17:35;49949.09;;;-146.63;87.70
62462;BME280;48511;38.664;-9.202;2023-02-22T02:22:18;49945.16;;;-146.63;87.84
62462;BME280;48511;38.664;-9.202;2023-02-22T02:33:49;49992.53;;;-146.63;87.73
62462;BME280;48511;38.664;-9.202;2023-02-22T02:36:03;49968.84;;;-146.63;87.96
62462;BME280;48511;38.664;-9.202;2023-02-22T02:40:40;50008.31;;;-146.63;88.01
62462;BME280;48511;38.664;-9.202;2023-02-22T02:42:54;49960.94;;;-146.63;88.33
62462;BME280;48511;38.664;-9.202;2023-02-22T02:47:48;49984.63;;;-146.63;88.56
62462;BME280;48511;38.664;-9.202;2023-02-22T02:49:55;49976.75;;;-146.63;88.02
62462;BME280;48511;38.664;-9.202;2023-02-22T02:51:58;49980.69;;;-146.63;88.17
62462;BME280;48511;38.664;-9.202;2023-02-22T02:54:02;49947.13;;;-146.63;88.29
62462;BME280;48511;38.664;-9.202;2023-02-22T02:56:04;50000.44;;;-146.63;88.29
62462;BME280;48511;38.664;-9.202;2023-02-22T02:58:06;49958.97;;;-146.63;88.22
62462;BME280;48511;38.664;-9.202;2023-02-22T03:00:08;49972.78;;;-146.63;88.33
62462;BME280;48511;38.664;-9.202;2023-02-22T03:03:06;49994.50;;;-146.63;88.40
62462;BME280;48511;38.664;-9.202;2023-02-22T03:09:40;49966.88;;;-146.63;88.70
62462;BME280;48511;38.664;-9.202;2023-02-22T03:12:11;49992.53;;;-146.63;88.64
62462;BME280;48511;38.664;-9.202;2023-02-22T03:14:35;49972.78;;;-146.63;88.78
62462;BME280;48511;38.664;-9.202;2023-02-22T03:23:55;50000.44;;;-146.63;88.87
62462;BME280;48511;38.664;-9.202;2023-02-22T03:26:03;49980.69;;;-146.63;88.78
62462;BME280;48511;38.664;-9.202;2023-02-22T03:28:10;49962.91;;;-146.63;88.91
62462;BME280;48511;38.664;-9.202;2023-02-22T03:30:18;49984.63;;;-146.63;88.79
62462;BME280;48511;38.664;-9.202;2023-02-22T03:32:28;49980.69;;;-146.63;88.56
62462;BME280;48511;38.664;-9.202;2023-02-22T03:34:37;49976.75;;;-146.63;88.50
62462;BME280;48511;38.664;-9.202;2023-02-22T03:36:47;50000.44;;;-146.63;88.26
62462;BME280;48511;38.664;-9.202;2023-02-22T03:38:51;49996.47;;;-146.63;88.42
62462;BME280;48511;38.664;-9.202;2023-02-22T03:40:58;49984.63;;;-146.63;88.54
62462;BME280;48511;38.664;-9.202;2023-02-22T03:43:05;49957.00;;;-146.63;88.66
62462;BME280;48511;38.664;-9.202;2023-02-22T03:45:10;49998.44;;;-146.63;88.93
62462;BME280;48511;38.664;-9.202;2023-02-22T03:47:20;49976.75;;;-146.63;88.68
62462;BME280;48511;38.664;-9.202;2023-02-22T03:51:57;49992.53;;;-146.63;88.59
62462;BME280;48511;38.664;-9.202;2023-02-22T03:54:00;50004.38;;;-146.63;88.83
62462;BME280;48511;38.664;-9.202;2023-02-22T03:56:10;49970.81;;;-146.63;88.82
62462;BME280;48511;38.664;-9.202;2023-02-22T03:58:14;49960.94;;;-146.63;88.75
62462;BME280;48511;38.664;-9.202;2023-02-22T04:00:21;49970.81;;;-146.63;88.67
62462;BME280;48511;38.664;-9.202;2023-02-22T04:02:23;49992.53;;;-146.63;88.94
62462;BME280;48511;38.664;-9.202;2023-02-22T04:04:25;49964.91;;;-146.63;88.94
62462;BME280;48511;38.664;-9.202;2023-02-22T04:06:27;49980.69;;;-146.63;88.56
62462;BME280;48511;38.664;-9.202;2023-02-22T04:08:29;49984.63;;;-146.63;88.94
62462;BME280;48511;38.664;-9.202;2023-02-22T04:10:29;49980.69;;;-146.63;88.70
62462;BME280;48511;38.664;-9.202;2023-02-22T04:12:31;49978.72;;;-146.63;88.61
62462;BME280;48511;38.664;-9.202;2023-02-22T04:14:37;50006.34;;;-146.63;88.70
62462;BME280;48511;38.664;-9.202;2023-02-22T04:16:37;49976.75;;;-146.63;88.46
62462;BME280;48511;38.664;-9.202;2023-02-22T04:18:42;50004.38;;;-146.63;88.56
62462;BME280;48511;38.664;-9.202;2023-02-22T04:20:42;50016.22;;;-146.63;88.61
62462;BME280;48511;38.664;-9.202;2023-02-22T04:22:51;49978.72;;;-146.63;88.69
62462;BME280;48511;38.664;-9.202;2023-02-22T04:24:53;49982.66;;;-146.63;88.72
62462;BME280;48511;38.664;-9.202;2023-02-22T04:26:54;49953.06;;;-146.63;89.16
62462;BME280;48511;38.664;-9.202;2023-02-22T04:28:56;49978.72;;;-146.63;88.77
62462;BME280;48511;38.664;-9.202;2023-02-22T04:30:58;49976.75;;;-146.63;88.78
62462;BME280;48511;38.664;-9.202;2023-02-22T04:33:00;49964.91;;;-146.63;88.75
62462;BME280;48511;38.664;-9.202;2023-02-22T04:35:01;49984.63;;;-146.63;88.52
62462;BME280;48511;38.664;-9.202;2023-02-22T04:37:04;49966.88;;;-146.63;88.68
62462;BME280;48511;38.664;-9.202;2023-02-22T04:39:06;49998.44;;;-146.63;88.69
62462;BME280;48511;38.664;-9.202;2023-02-22T04:41:07;49972.78;;;-146.63;88.74
62462;BME280;48511;38.664;-9.202;2023-02-22T04:43:08;49984.63;;;-146.63;88.74
62462;BME280;48511;38.664;-9.202;2023-02-22T04:45:09;50002.41;;;-146.63;88.77
62462;BME280;48511;38.664;-9.202;2023-02-22T04:47:11;49949.09;;;-146.63;89.03
62462;BME280;48511;38.664;-9.202;2023-02-22T04:49:11;49976.75;;;-146.63;88.73
62462;BME280;48511;38.664;-9.202;2023-02-22T04:51:15;49958.97;;;-146.63;88.56
62462;BME280;48511;38.664;-9.202;2023-02-22T04:53:27;49964.91;;;-146.63;88.61
62462;BME280;48511;38.664;-9.202;2023-02-22T04:55:29;49966.88;;;-146.63;88.48
62462;BME280;48511;38.664;-9.202;2023-02-22T04:57:30;50010.28;;;-146.63;88.27
62462;BME280;48511;38.664;-9.202;2023-02-22T04:59:31;49998.44;;;-146.63;88.28
62462;BME280;48511;38.664;-9.202;2023-02-22T05:01:35;49978.72;;;-146.63;88.33
62462;BME280;48511;38.664;-9.202;2023-02-22T05:03:37;49943.19;;;-146.63;88.49
62462;BME280;48511;38.664;-9.202;2023-02-22T05:05:38;49984.63;;;-146.63;88.31
62462;BME280;48511;38.664;-9.202;2023-02-22T05:07:39;50004.38;;;-146.63;88.26
62462;BME280;48511;38.664;-9.202;2023-02-22T05:09:39;49968.84;;;-146.63;88.28
62462;BME280;48511;38.664;-9.202;2023-02-22T05:11:40;49960.94;;;-146.63;88.44
62462;BME280;48511;38.664;-9.202;2023-02-22T05:13:41;49978.72;;;-146.63;88.10
62462;BME280;48511;38.664;-9.202;2023-02-22T05:15:41;49941.22;;;-146.63;88.33
62462;BME280;48511;38.664;-9.202;2023-02-22T05:17:42;49990.56;;;-146.63;88.74
62462;BME280;48511;38.664;-9.202;2023-02-22T05:19:43;49978.72;;;-146.63;88.71
62462;BME280;48511;38.664;-9.202;2023-02-22T05:21:44;50016.22;;;-146.63;88.67
62462;BME280;48511;38.664;-9.202;2023-02-22T05:23:44;49996.47;;;-146.63;88.16
62462;BME280;48511;38.664;-9.202;2023-02-22T05:25:45;50008.31;;;-146.63;88.48
62462;BME280;48511;38.664;-9.202;2023-02-22T05:27:54;50000.44;;;-146.63;88.34
62462;BME280;48511;38.664;-9.202;2023-02-22T05:29:56;49988.59;;;-146.63;88.11
62462;BME280;48511;38.664;-9.202;2023-02-22T05:31:57;50000.44;;;-146.63;88.47
62462;BME280;48511;38.664;-9.202;2023-02-22T05:33:58;49964.91;;;-146.63;88.28
62462;BME280;48511;38.664;-9.202;2023-02-22T05:35:58;49980.69;;;-146.63;88.54
62462;BME280;48511;38.664;-9.202;2023-02-22T05:37:59;49941.22;;;-146.63;88.36
62462;BME280;48511;38.664;-9.202;2023-02-22T05:40:02;49953.06;;;-146.63;88.12
62462;BME280;48511;38.664;-9.202;2023-02-22T05:42:04;49992.53;;;-146.63;88.26
62462;BME280;48511;38.664;-9.202;2023-02-22T05:44:04;49976.75;;;-146.63;88.49
62462;BME280;48511;38.664;-9.202;2023-02-22T05:46:06;49988.59;;;-146.63;88.49
62462;BME280;48511;38.664;-9.202;2023-02-22T05:48:07;49962.91;;;-146.63;88.29
62462;BME280;48511;38.664;-9.202;2023-02-22T05:50:08;49964.91;;;-146.63;88.33
62462;BME280;48511;38.664;-9.202;2023-02-22T05:52:09;50012.25;;;-146.63;88.51
62462;BME280;48511;38.664;-9.202;2023-02-22T05:54:10;50008.31;;;-146.63;88.54
62462;BME280;48511;38.664;-9.202;2023-02-22T05:56:10;49992.53;;;-146.63;88.17
62462;BME280;48511;38.664;-9.202;2023-02-22T05:58:11;49980.69;;;-146.63;88.60
62462;BME280;48511;38.664;-9.202;2023-02-22T06:00:17;49994.50;;;-146.63;88.47
62462;BME280;48511;38.664;-9.202;2023-02-22T06:02:18;50020.16;;;-146.63;88.50
62462;BME280;48511;38.664;-9.202;2023-02-22T06:04:19;49970.81;;;-146.63;88.54
62462;BME280;48511;38.664;-9.202;2023-02-22T06:06:20;50008.31;;;-146.63;88.83
62462;BME280;48511;38.664;-9.202;2023-02-22T06:08:20;50004.38;;;-146.63;88.80
62462;BME280;48511;38.664;-9.202;2023-02-22T06:10:21;49992.53;;;-146.63;88.90
62462;BME280;48511;38.664;-9.202;2023-02-22T06:12:22;50020.16;;;-146.63;88.58
62462;BME280;48511;38.664;-9.202;2023-02-22T06:14:23;50000.44;;;-146.63;89.04
62462;BME280;48511;38.664;-9.202;2023-02-22T06:16:24;49990.56;;;-146.63;89.20
62462;BME280;48511;38.664;-9.202;2023-02-22T06:18:26;50016.22;;;-146.63;88.79
62462;BME280;48511;38.664;-9.202;2023-02-22T06:20:28;49988.59;;;-146.63;88.74
62462;BME280;48511;38.664;-9.202;2023-02-22T06:22:29;49976.75;;;-146.63;88.86
62462;BME280;48511;38.664;-9.202;2023-02-22T06:24:29;49960.94;;;-146.63;88.85
62462;BME280;48511;38.664;-9.202;2023-02-22T06:26:30;49960.94;;;-146.63;88.91
62462;BME280;48511;38.664;-9.202;2023-02-22T06:28:31;49958.97;;;-146.63;89.07
62462;BME280;48511;38.664;-9.202;2023-02-22T06:30:32;49990.56;;;-146.63;88.89
62462;BME280;48511;38.664;-9.202;2023-02-22T06:32:32;49980.69;;;-146.63;89.01
62462;BME280;48511;38.664;-9.202;2023-02-22T06:34:33;49972.78;;;-146.63;88.98
62462;BME280;48511;38.664;-9.202;2023-02-22T06:36:34;49998.44;;;-146.63;89.00
62462;BME280;48511;38.664;-9.202;2023-02-22T06:38:34;49990.56;;;-146.63;89.55
62462;BME280;48511;38.664;-9.202;2023-02-22T06:40:35;49968.84;;;-146.63;89.83
62462;BME280;48511;38.664;-9.202;2023-02-22T06:42:37;49996.47;;;-146.63;89.55
62462;BME280;48511;38.664;-9.202;2023-02-22T06:44:38;49960.94;;;-146.63;89.15
62462;BME280;48511;38.664;-9.202;2023-02-22T06:46:39;49990.56;;;-146.63;89.11
62462;BME280;48511;38.664;-9.202;2023-02-22T06:48:39;50004.38;;;-146.63;89.43
62462;BME280;48511;38.664;-9.202;2023-02-22T06:50:40;49984.63;;;-146.63;89.04
62462;BME280;48511;38.664;-9.202;2023-02-22T06:52:42;49974.75;;;-146.63;89.05
62462;BME280;48511;38.664;-9.202;2023-02-22T06:54:43;49992.53;;;-146.63;89.07
62462;BME280;48511;38.664;-9.202;2023-02-22T06:56:43;50008.31;;;-146.63;89.14
62462;BME280;48511;38.664;-9.202;2023-02-22T06:58:44;50010.28;;;-146.63;89.14
62462;BME280;48511;38.664;-9.202;2023-02-22T07:00:45;50016.22;;;-146.63;88.88
62462;BME280;48511;38.664;-9.202;2023-02-22T07:02:46;49976.75;;;-146.63;89.34
62462;BME280;48511;38.664;-9.202;2023-02-22T07:04:49;49953.06;;;-146.63;88.95
62462;BME280;48511;38.664;-9.202;2023-02-22T07:06:50;50008.31;;;-146.63;89.20
62462;BME280;48511;38.664;-9.202;2023-02-22T07:08:51;50012.25;;;-146.63;88.97
62462;BME280;48511;38.664;-9.202;2023-02-22T07:10:52;49972.78;;;-146.63;89.07
62462;BME280;48511;38.664;-9.202;2023-02-22T07:12:53;49992.53;;;-146.63;88.99
62462;BME280;48511;38.664;-9.202;2023-02-22T07:14:54;49996.47;;;-146.63;88.53
62462;BME280;48511;38.664;-9.202;2023-02-22T07:16:55;49992.53;;;-146.63;88.70
62462;BME280;48511;38.664;-9.202;2023-02-22T07:18:56;50028.06;;;-146.63;88.37
62462;BME280;48511;38.664;-9.202;2023-02-22T07:20:57;49972.78;;;-146.63;88.39
62462;BME280;48511;38.664;-9.202;2023-02-22T07:22:58;49976.75;;;-146.63;88.38
62462;BME280;48511;38.664;-9.202;2023-02-22T07:24:59;50012.25;;;-146.63;88.27
62462;BME280;48511;38.664;-9.202;2023-02-22T07:27:01;50016.22;;;-146.63;88.22
62462;BME280;48511;38.664;-9.202;2023-02-22T07:29:01;49988.59;;;-146.63;88.11
62462;BME280;48511;38.664;-9.202;2023-02-22T07:31:02;50002.41;;;-146.63;88.10
62462;BME280;48511;38.664;-9.202;2023-02-22T07:33:07;49964.91;;;-146.63;87.93
62462;BME280;48511;38.664;-9.202;2023-02-22T07:35:35;49976.75;;;-146.63;87.84
62462;BME280;48511;38.664;-9.202;2023-02-22T07:37:36;50014.25;;;-146.63;87.67
62462;BME280;48511;38.664;-9.202;2023-02-22T07:39:36;50006.34;;;-146.63;87.46
62462;BME280;48511;38.664;-9.202;2023-02-22T07:41:37;50022.13;;;-146.63;87.21
62462;BME280;48511;38.664;-9.202;2023-02-22T07:43:48;49988.59;;;-146.63;86.88
62462;BME280;48511;38.664;-9.202;2023-02-22T07:45:50;49998.44;;;-146.63;86.52
62462;BME280;48511;38.664;-9.202;2023-02-22T07:47:51;50010.28;;;-146.63;86.34
62462;BME280;48511;38.664;-9.202;2023-02-22T07:49:52;49988.59;;;-146.63;85.79
62462;BME280;48511;38.664;-9.202;2023-02-22T07:51:53;49992.53;;;-146.63;85.79
62462;BME280;48511;38.664;-9.202;2023-02-22T07:53:54;50010.28;;;-146.63;85.68
62462;BME280;48511;38.664;-9.202;2023-02-22T07:55:56;49984.63;;;-146.63;85.31
62462;BME280;48511;38.664;-9.202;2023-02-22T07:58:03;49988.59;;;-146.63;85.04
62462;BME280;48511;38.664;-9.202;2023-02-22T08:00:07;50026.09;;;-146.63;84.89
62462;BME280;48511;38.664;-9.202;2023-02-22T08:02:15;50008.31;;;-146.63;84.82
62462;BME280;48511;38.664;-9.202;2023-02-22T08:04:16;49992.53;;;-146.63;84.48
62462;BME280;48511;38.664;-9.202;2023-02-22T08:06:17;50002.41;;;-146.63;83.84
62462;BME280;48511;38.664;-9.202;2023-02-22T08:08:18;49992.53;;;-146.63;83.51
62462;BME280;48511;38.664;-9.202;2023-02-22T08:10:20;49964.91;;;-146.63;83.09
62462;BME280;48511;38.664;-9.202;2023-02-22T08:12:22;50008.31;;;-146.63;83.12
62462;BME280;48511;38.664;-9.202;2023-02-22T08:14:23;49988.59;;;-146.63;82.68
62462;BME280;48511;38.664;-9.202;2023-02-22T08:16:24;50012.25;;;-146.63;82.36
62462;BME280;48511;38.664;-9.202;2023-02-22T08:18:25;49976.75;;;-146.63;82.13
62462;BME280;48511;38.664;-9.202;2023-02-22T08:20:26;49980.69;;;-146.63;81.90
62462;BME280;48511;38.664;-9.202;2023-02-22T08:22:27;50016.22;;;-146.63;81.67
62462;BME280;48511;38.664;-9.202;2023-02-22T08:24:28;49992.53;;;-146.63;81.48
62462;BME280;48511;38.664;-9.202;2023-02-22T08:26:29;49974.75;;;-146.63;81.09
62462;BME280;48511;38.664;-9.202;2023-02-22T08:28:30;49978.72;;;-146.63;80.94
62462;BME280;48511;38.664;-9.202;2023-02-22T08:30:32;49984.63;;;-146.63;80.82
62462;BME280;48511;38.664;-9.202;2023-02-22T08:32:34;49980.69;;;-146.63;80.57
62462;BME280;48511;38.664;-9.202;2023-02-22T08:34:35;49960.94;;;-146.63;80.03
62462;BME280;48511;38.664;-9.202;2023-02-22T08:36:40;50024.09;;;-146.63;79.72
62462;BME280;48511;38.664;-9.202;2023-02-22T08:38:42;50012.25;;;-146.63;79.37
62462;BME280;48511;38.664;-9.202;2023-02-22T08:40:43;49988.59;;;-146.63;78.70
62462;BME280;48511;38.664;-9.202;2023-02-22T08:42:44;49994.50;;;-146.63;77.93
62462;BME280;48511;38.664;-9.202;2023-02-22T08:44:45;50000.44;;;-146.63;77.50
62462;BME280;48511;38.664;-9.202;2023-02-22T08:46:45;50008.31;;;-146.63;76.54
62462;BME280;48511;38.664;-9.202;2023-02-22T08:48:50;50024.09;;;-146.63;76.28
62462;BME280;48511;38.664;-9.202;2023-02-22T08:50:51;49978.72;;;-146.63;75.87
62462;BME280;48511;38.664;-9.202;2023-02-22T08:52:53;50026.09;;;-146.63;75.44
62462;BME280;48511;38.664;-9.202;2023-02-22T08:54:55;49978.72;;;-146.63;74.73
62462;BME280;48511;38.664;-9.202;2023-02-22T08:56:55;49996.47;;;-146.63;73.88
62462;BME280;48511;38.664;-9.202;2023-02-22T08:58:56;50006.34;;;-146.63;74.00
62462;BME280;48511;38.664;-9.202;2023-02-22T09:00:57;49984.63;;;-146.63;74.18
62462;BME280;48511;38.664;-9.202;2023-02-22T09:03:02;49972.78;;;-146.63;73.24
62462;BME280;48511;38.664;-9.202;2023-02-22T09:05:03;50037.94;;;-146.63;72.61
62462;BME280;48511;38.664;-9.202;2023-02-22T09:07:05;49986.59;;;-146.63;71.47
62462;BME280;48511;38.664;-9.202;2023-02-22T09:09:05;49968.84;;;-146.63;69.29
62462;BME280;48511;38.664;-9.202;2023-02-22T09:11:06;50008.31;;;-146.63;69.37
62462;BME280;48511;38.664;-9.202;2023-02-22T09:13:08;50016.22;;;-146.63;69.27
62462;BME280;48511;38.664;-9.202;2023-02-22T09:15:09;50004.38;;;-146.63;69.38
62462;BME280;48511;38.664;-9.202;2023-02-22T09:17:11;49962.91;;;-146.63;68.21
62462;BME280;48511;38.664;-9.202;2023-02-22T09:19:12;49982.66;;;-146.63;68.18
62462;BME280;48511;38.664;-9.202;2023-02-22T09:21:13;49964.91;;;-146.63;67.47
62462;BME280;48511;38.664;-9.202;2023-02-22T09:23:14;49998.44;;;-146.63;66.97
62462;BME280;48511;38.664;-9.202;2023-02-22T09:25:16;50008.31;;;-146.63;65.46
62462;BME280;48511;38.664;-9.202;2023-02-22T09:27:17;49994.50;;;-146.63;64.68
62462;BME280;48511;38.664;-9.202;2023-02-22T09:29:24;49972.78;;;-146.63;64.76
62462;BME280;48511;38.664;-9.202;2023-02-22T09:31:25;49970.81;;;-146.63;64.38
62462;BME280;48511;38.664;-9.202;2023-02-22T09:33:25;49960.94;;;-146.63;63.91
62462;BME280;48511;38.664;-9.202;2023-02-22T09:35:26;50010.28;;;-146.63;63.53
62462;BME280;48511;38.664;-9.202;2023-02-22T09:37:27;49970.81;;;-146.63;63.84
62462;BME280;48511;38.664;-9.202;2023-02-22T09:39:28;49968.84;;;-146.63;63.17
62462;BME280;48511;38.664;-9.202;2023-02-22T09:41:35;49964.91;;;-146.63;63.18
62462;BME280;48511;38.664;-9.202;2023-02-22T09:48:35;50006.34;;;-146.63;58.89
62462;BME280;48511;38.664;-9.202;2023-02-22T09:50:41;50016.22;;;-146.63;57.05
62462;BME280;48511;38.664;-9.202;2023-02-22T09:52:58;49960.94;;;-146.63;58.01
62462;BME280;48511;38.664;-9.202;2023-02-22T09:55:07;50006.34;;;-146.63;58.07
62462;BME280;48511;38.664;-9.202;2023-02-22T09:57:13;50006.34;;;-146.63;57.63
62462;BME280;48511;38.664;-9.202;2023-02-22T09:59:22;49964.91;;;-146.63;57.71
62462;BME280;48511;38.664;-9.202;2023-02-22T10:01:43;49996.47;;;-146.63;57.18
62462;BME280;48511;38.664;-9.202;2023-02-22T10:03:48;49996.47;;;-146.63;56.12
62462;BME280;48511;38.664;-9.202;2023-02-22T10:06:03;49986.59;;;-146.63;56.05
62462;BME280;48511;38.664;-9.202;2023-02-22T10:08:11;49970.81;;;-146.63;55.82
62462;BME280;48511;38.664;-9.202;2023-02-22T10:10:22;49980.69;;;-146.63;55.62
62462;BME280;48511;38.664;-9.202;2023-02-22T10:20:02;50000.44;;;-146.63;47.77
62462;BME280;48511;38.664;-9.202;2023-02-22T10:22:24;49960.94;;;-146.63;48.34
62462;BME280;48511;38.664;-9.202;2023-02-22T10:25:23;49972.78;;;-146.63;47.79
62462;BME280;48511;38.664;-9.202;2023-02-22T10:26:58;49974.75;;;-146.63;48.05
62462;BME280;48511;38.664;-9.202;2023-02-22T10:31:30;50008.31;;;-146.63;48.21
62462;BME280;48511;38.664;-9.202;2023-02-22T10:33:38;50006.34;;;-146.63;48.61
62462;BME280;48511;38.664;-9.202;2023-02-22T10:35:43;49970.81;;;-146.63;49.00
62462;BME280;48511;38.664;-9.202;2023-02-22T10:37:44;49960.94;;;-146.63;48.75
62462;BME280;48511;38.664;-9.202;2023-02-22T10:39:47;50008.31;;;-146.63;48.59
62462;BME280;48511;38.664;-9.202;2023-02-22T10:41:51;50016.22;;;-146.63;48.63
62462;BME280;48511;38.664;-9.202;2023-02-22T10:43:54;50006.34;;;-146.63;49.00
62462;BME280;48511;38.664;-9.202;2023-02-22T10:45:57;49994.50;;;-146.63;49.15
62462;BME280;48511;38.664;-9.202;2023-02-22T10:48:04;49968.84;;;-146.63;48.37
62462;BME280;48511;38.664;-9.202;2023-02-22T10:50:11;50008.31;;;-146.63;46.79
62462;BME280;48511;38.664;-9.202;2023-02-22T10:52:34;49976.75;;;-146.63;47.19
62462;BME280;48511;38.664;-9.202;2023-02-22T10:54:40;49992.53;;;-146.63;48.30
62462;BME280;48511;38.664;-9.202;2023-02-22T10:56:49;49992.53;;;-146.63;48.33
62462;BME280;48511;38.664;-9.202;2023-02-22T10:59:01;50004.38;;;-146.63;49.07
62462;BME280;48511;38.664;-9.202;2023-02-22T11:01:23;49992.53;;;-146.63;50.36
62462;BME280;48511;38.664;-9.202;2023-02-22T11:03:25;50000.44;;;-146.63;50.13
62462;BME280;48511;38.664;-9.202;2023-02-22T11:05:41;49990.56;;;-146.63;49.76
62462;BME280;48511;38.664;-9.202;2023-02-22T11:07:41;49951.09;;;-146.63;49.78
62462;BME280;48511;38.664;-9.202;2023-02-22T11:09:51;49986.59;;;-146.63;50.62
62462;BME280;48511;38.664;-9.202;2023-02-22T11:12:10;49988.59;;;-146.63;49.87
62462;BME280;48511;38.664;-9.202;2023-02-22T11:14:28;49994.50;;;-146.63;50.37
62462;BME280;48511;38.664;-9.202;2023-02-22T11:16:37;49964.91;;;-146.63;50.85
62462;BME280;48511;38.664;-9.202;2023-02-22T11:18:38;49964.91;;;-146.63;51.51
62462;BME280;48511;38.664;-9.202;2023-02-22T11:20:39;49992.53;;;-146.63;51.96
62462;BME280;48511;38.664;-9.202;2023-02-22T11:22:40;50000.44;;;-146.63;52.32